Time;durP1;ratioP1;P1;durP2;ratioP2;P2;SDS_P1;SDS_P2;PMS_P1;PMS_P2;Temp;Humidity;BMP_temperature;BMP_pressure;BME280_temperature;BME280_humidity;BME280_pressure;Samples;Min_cycle;Max_cycle;Signal;HPM_P1;HPM_P2
2023/10/12 00:01:58;;;;;;;19.95;7.90;;;;;;;24.56;63.61;101250.91;5102206;27;20035;-67
2023/10/12 00:04:28;;;;;;;19.10;8.07;;;;;;;24.17;64.64;101255.09;5130383;27;20053;-67
2023/10/12 00:06:55;;;;;;;20.98;8.27;;;;;;;24.13;65.29;101256.22;5096059;28;20028;-67
2023/10/12 00:09:25;;;;;;;14.35;7.05;;;;;;;24.21;65.33;101266.44;5107728;28;20039;-67
2023/10/12 00:11:58;;;;;;;15.65;7.10;;;;;;;23.83;67.62;101264.22;5093718;28;20685;-67
2023/10/12 00:14:28;;;;;;;;;;;;;;;23.87;68.17;101269.28;5092220;28;20460;-67
2023/10/12 00:16:54;;;;;;;18.50;8.32;;;;;;;24.01;67.39;101275.66;5092044;28;19915;-67
2023/10/12 00:19:21;;;;;;;17.15;6.95;;;;;;;24.22;67.38;101274.38;5116219;28;20227;-68
2023/10/12 00:21:46;;;;;;;23.13;7.82;;;;;;;24.47;65.31;101271.97;5109379;28;20027;-68
2023/10/12 00:24:16;;;;;;;22.13;8.55;;;;;;;24.77;62.76;101263.91;5105505;28;20024;-67
2023/10/12 00:26:43;;;;;;;19.20;8.00;;;;;;;24.98;62.63;101271.53;5090663;28;20024;-67
2023/10/12 00:29:09;;;;;;;20.38;7.97;;;;;;;24.32;64.72;101284.50;5109449;28;20024;-68
2023/10/12 00:31:41;;;;;;;18.70;7.03;;;;;;;24.11;66.40;101297.31;5109724;28;20035;-67
2023/10/12 00:34:08;;;;;;;24.23;8.07;;;;;;;24.12;66.51;101289.22;5109676;28;20759;-67
2023/10/12 00:36:37;;;;;;;25.20;7.75;;;;;;;24.60;63.25;101280.13;5091999;28;20114;-67
2023/10/12 00:39:09;;;;;;;24.27;7.78;;;;;;;24.95;62.37;101282.41;5109787;28;20023;-67
2023/10/12 00:41:36;;;;;;;17.60;7.18;;;;;;;24.25;64.51;101291.13;5108631;28;20028;-66
2023/10/12 00:44:12;;;;;;;20.65;7.20;;;;;;;24.33;64.61;101303.09;5123054;28;20457;-67
2023/10/12 00:46:58;;;;;;;20.40;5.97;;;;;;;24.08;63.97;101293.00;5091463;28;20062;-67
2023/10/12 00:49:26;;;;;;;18.65;6.32;;;;;;;23.03;68.16;101305.13;5091116;28;20420;-67
2023/10/12 00:52:07;;;;;;;18.02;6.05;;;;;;;23.32;67.42;101299.16;5111179;28;20050;-67
2023/10/12 00:57:02;;;;;;;17.83;6.50;;;;;;;24.25;63.02;101293.81;5109070;28;20119;-67
2023/10/12 00:59:34;;;;;;;18.63;5.22;;;;;;;23.82;63.30;101308.75;5117308;28;20102;-67
2023/10/12 01:02:08;;;;;;;15.15;4.80;;;;;;;23.73;64.85;101298.59;5127372;28;20039;-67
2023/10/12 01:04:35;;;;;;;21.73;5.90;;;;;;;24.36;61.78;101292.22;5098521;28;20095;-67
2023/10/12 01:07:01;;;;;;;12.25;5.57;;;;;;;24.05;62.04;101282.53;5102042;28;20042;-67
2023/10/12 01:09:38;;;;;;;12.00;5.20;;;;;;;23.48;63.97;101283.13;5125416;28;20039;-67
2023/10/12 01:12:06;;;;;;;12.88;4.55;;;;;;;23.61;63.92;101286.81;5104310;28;20051;-67
2023/10/12 01:14:32;;;;;;;10.90;4.30;;;;;;;24.32;61.47;101292.50;5109564;28;20116;-67
2023/10/12 01:17:04;;;;;;;13.65;4.22;;;;;;;24.08;60.93;101281.50;5111389;27;20028;-67
2023/10/12 01:19:33;;;;;;;10.23;4.25;;;;;;;24.00;60.74;101268.59;5125433;27;20387;-67
2023/10/12 01:22:12;;;;;;;15.85;4.40;;;;;;;23.66;63.15;101265.22;5118693;27;20022;-67
2023/10/12 01:27:25;;;;;;;14.95;5.20;;;;;;;24.03;61.82;101263.09;5112649;27;20035;-67
2023/10/12 01:29:52;;;;;;;13.73;4.00;;;;;;;23.80;63.15;101267.09;5116599;27;20058;-67
2023/10/12 01:34:51;;;;;;;9.80;4.18;;;;;;;23.63;64.01;101268.06;5121426;27;20129;-67
2023/10/12 01:37:26;;;;;;;10.27;4.05;;;;;;;25.08;58.21;101251.25;5105807;27;20029;-66
2023/10/12 01:47:55;;;;;;;8.05;3.80;;;;;;;23.58;62.01;101270.16;5129912;27;20428;-67
2023/10/12 01:50:24;;;;;;;11.80;4.32;;;;;;;24.70;58.96;101249.22;5124711;27;21401;-67
2023/10/12 01:52:58;;;;;;;9.95;3.50;;;;;;;25.20;58.29;101245.09;5111165;27;20095;-67
2023/10/12 01:55:29;;;;;;;9.73;3.22;;;;;;;25.03;57.53;101245.34;5130658;27;20015;-67
2023/10/12 01:57:55;;;;;;;12.68;4.13;;;;;;;25.07;57.35;101233.47;5099947;28;20019;-67
2023/10/12 02:00:28;;;;;;;12.55;4.25;;;;;;;25.20;57.74;101239.75;5094157;27;20063;-67
2023/10/12 02:03:18;;;;;;;9.05;4.00;;;;;;;24.25;60.23;101245.75;5106961;27;20046;-67
2023/10/12 02:05:58;;;;;;;7.38;3.85;;;;;;;24.95;57.00;101244.97;5114160;27;20050;-67
2023/10/12 02:08:27;;;;;;;7.03;3.35;;;;;;;25.29;58.40;101251.66;5093000;28;20031;-66
2023/10/12 02:10:58;;;;;;;16.10;4.32;;;;;;;24.40;59.55;101247.50;5092385;27;20070;-67
2023/10/12 02:13:24;;;;;;;11.38;4.43;;;;;;;24.61;59.53;101247.09;5112596;28;20042;-67
2023/10/12 02:15:50;;;;;;;15.32;4.10;;;;;;;24.26;60.02;101247.47;5102413;27;20466;-67
2023/10/12 02:18:18;;;;;;;15.90;4.30;;;;;;;25.01;56.78;101249.94;5109222;27;20119;-67
2023/10/12 02:21:06;;;;;;;10.65;3.80;;;;;;;24.73;58.29;101247.22;5107196;27;20389;-67
2023/10/12 02:23:36;;;;;;;13.50;4.28;;;;;;;24.72;58.91;101233.94;5110474;27;20042;-67
2023/10/12 02:26:07;;;;;;;8.23;3.20;;;;;;;25.15;57.58;101235.66;5101070;27;20247;-67
2023/10/12 02:28:37;;;;;;;19.17;3.97;;;;;;;25.52;56.35;101222.56;5093387;28;20136;-67
2023/10/12 02:31:04;;;;;;;14.40;4.65;;;;;;;26.21;54.74;101204.47;5095594;27;20050;-68
2023/10/12 02:33:35;;;;;;;8.95;3.30;;;;;;;25.97;55.25;101214.19;5128256;27;20031;-67
2023/10/12 02:36:06;;;;;;;11.60;3.93;;;;;;;26.00;54.63;101224.69;5115608;27;20023;-67
2023/10/12 02:38:33;;;;;;;19.90;4.38;;;;;;;26.11;55.16;101230.16;5128748;27;20046;-68
2023/10/12 02:40:59;;;;;;;11.70;4.20;;;;;;;26.30;54.88;101218.19;5124549;27;20030;-68
2023/10/12 02:43:27;;;;;;;9.82;3.83;;;;;;;26.24;55.71;101217.63;5093175;28;20019;-67
2023/10/12 02:45:58;;;;;;;8.85;4.43;;;;;;;26.05;54.47;101225.25;5110808;28;20054;-67
2023/10/12 02:48:24;;;;;;;11.25;4.00;;;;;;;26.31;54.60;101231.47;5098506;27;20047;-67
2023/10/12 02:51:01;;;;;;;19.85;4.35;;;;;;;26.20;55.08;101229.53;5125760;27;20119;-67
2023/10/12 02:53:34;;;;;;;9.82;4.65;;;;;;;25.56;55.86;101240.97;5131396;27;20031;-67
2023/10/12 02:56:04;;;;;;;8.80;3.38;;;;;;;24.48;58.78;101247.88;5126404;27;20565;-67
2023/10/12 02:58:30;;;;;;;8.07;4.55;;;;;;;25.48;58.20;101243.31;5110427;27;20087;-67
2023/10/12 03:01:13;;;;;;;12.57;3.63;;;;;;;26.03;57.32;101227.16;5093653;28;20047;-67
2023/10/12 03:03:39;;;;;;;11.50;3.50;;;;;;;25.90;54.93;101244.03;5106368;28;20028;-68
2023/10/12 03:06:10;;;;;;;15.18;3.53;;;;;;;26.18;54.42;101242.16;5101449;28;20081;-67
2023/10/12 03:11:25;;;;;;;7.55;3.60;;;;;;;26.31;56.12;101222.56;5107828;28;20133;-67
2023/10/12 03:14:00;;;;;;;9.23;2.95;;;;;;;26.34;53.23;101225.03;5088043;28;20042;-67
2023/10/12 03:16:33;;;;;;;11.27;3.40;;;;;;;26.37;54.10;101220.28;5089458;28;20406;-67
2023/10/12 03:19:22;;;;;;;17.02;4.90;;;;;;;26.31;55.56;101222.56;5088101;28;20032;-67
2023/10/12 03:21:52;;;;;;;11.68;3.63;;;;;;;26.16;53.21;101244.09;5099932;28;20543;-67
2023/10/12 03:24:23;;;;;;;8.68;4.03;;;;;;;26.22;55.78;101237.47;5110511;28;20075;-68
2023/10/12 03:26:55;;;;;;;9.40;2.97;;;;;;;26.16;55.65;101238.75;5109640;28;20079;-68
2023/10/12 03:29:21;;;;;;;8.00;3.38;;;;;;;26.13;55.08;101236.28;5093435;28;20651;-67
2023/10/12 03:34:58;;;;;;;10.98;3.92;;;;;;;26.12;54.95;101247.97;5098340;28;20028;-67
2023/10/12 03:37:13;;;;;;;11.48;3.80;;;;;;;26.02;54.92;101252.22;5086585;28;20482;-67
2023/10/12 03:44:57;;;;;;;9.55;3.33;;;;;;;26.04;54.15;101255.66;5107921;28;20031;-67
2023/10/12 03:52:27;;;;;;;10.55;3.92;;;;;;;26.06;53.93;101267.13;5090190;28;20040;-67
2023/10/12 03:55:42;;;;;;;7.07;3.35;;;;;;;26.70;52.58;101268.97;5087864;28;20073;-67
2023/10/12 03:57:50;;;;;;;9.32;3.75;;;;;;;26.42;53.47;101265.53;5087681;28;20020;-67
2023/10/12 04:05:16;;;;;;;8.60;3.72;;;;;;;26.56;53.75;101262.72;5105036;28;20360;-67
2023/10/12 04:13:55;;;;;;;6.63;2.97;;;;;;;26.23;55.98;101269.50;5109544;28;20227;-67
2023/10/12 04:21:18;;;;;;;8.57;2.95;;;;;;;26.24;55.36;101263.19;5088662;28;20047;-68
2023/10/12 04:28:58;;;;;;;7.45;3.55;;;;;;;26.43;53.71;101269.91;5108696;28;20065;-67
2023/10/12 04:34:06;;;;;;;;;;;;;;;25.74;55.45;101286.22;5089395;28;20032;-68
2023/10/12 04:36:34;;;;;;;7.35;3.13;;;;;;;25.55;56.94;101287.44;5104944;28;19942;-68
2023/10/12 04:47:07;;;;;;;9.40;3.15;;;;;;;24.97;56.52;101285.84;5094353;28;20032;-68
2023/10/12 04:57:32;;;;;;;6.20;3.47;;;;;;;26.36;54.21;101301.63;5107973;28;20049;-68
2023/10/12 05:02:53;;;;;;;;;;;;;;;26.07;53.93;101303.66;5109843;28;20043;-67
2023/10/12 05:07:58;;;;;;;7.07;3.28;;;;;;;26.31;53.86;101306.47;5093173;28;20043;-68
2023/10/12 05:13:10;;;;;;;7.80;3.15;;;;;;;26.05;54.47;101310.97;5111578;28;20172;-68
2023/10/12 05:15:42;;;;;;;3.40;2.05;;;;;;;24.51;56.86;101321.59;5101331;28;20037;-67
2023/10/12 05:18:11;;;;;;;1.75;1.30;;;;;;;23.98;57.78;101339.91;5103721;28;20027;-68
2023/10/12 05:20:43;;;;;;;1.25;0.90;;;;;;;23.17;59.31;101336.41;5128996;27;20413;-68
2023/10/12 05:23:10;;;;;;;1.33;0.90;;;;;;;23.99;57.51;101330.97;5105706;28;20115;-68
2023/10/12 05:25:48;;;;;;;0.50;0.50;;;;;;;23.65;57.78;101331.06;5108840;28;20047;-68
2023/10/12 05:28:18;;;;;;;0.45;0.38;;;;;;;23.30;58.59;101333.06;5107709;28;20031;-67
2023/10/12 05:30:55;;;;;;;1.23;0.90;;;;;;;23.34;58.42;101331.94;5108298;28;20487;-67
2023/10/12 05:35:59;;;;;;;2.20;0.63;;;;;;;24.13;55.30;101348.84;5112381;28;20382;-68
2023/10/12 05:38:37;;;;;;;1.40;0.60;;;;;;;23.15;57.62;101340.97;5098584;28;20034;-68
2023/10/12 05:41:08;;;;;;;1.20;0.57;;;;;;;23.59;56.46;101354.56;5091021;28;20073;-68
2023/10/12 05:43:39;;;;;;;0.45;0.45;;;;;;;24.03;55.06;101359.19;5101400;28;20058;-68
2023/10/12 05:46:15;;;;;;;1.30;0.55;;;;;;;23.33;56.04;101354.25;5111663;28;20028;-67
2023/10/12 05:48:51;;;;;;;0.65;0.50;;;;;;;23.81;55.52;101357.72;5108718;28;20084;-67
2023/10/12 05:51:19;;;;;;;0.35;0.35;;;;;;;23.77;55.00;101353.53;5091505;28;20106;-68
2023/10/12 05:54:06;;;;;;;0.70;0.70;;;;;;;23.29;56.67;101350.88;5101338;28;20383;-68
2023/10/12 05:56:34;;;;;;;0.70;0.40;;;;;;;22.32;59.28;101355.97;5104404;28;20051;-67
2023/10/12 05:59:00;;;;;;;0.85;0.57;;;;;;;23.07;57.26;101358.28;5097451;28;20465;-68
2023/10/12 06:01:36;;;;;;;0.30;0.30;;;;;;;22.96;58.18;101357.06;5088996;28;20078;-68
2023/10/12 06:04:06;;;;;;;0.60;0.57;;;;;;;22.69;58.85;101359.41;5096960;28;20028;-68
2023/10/12 06:06:41;;;;;;;1.63;0.63;;;;;;;22.32;58.88;101361.28;5104758;28;20453;-68
2023/10/12 06:09:11;;;;;;;2.20;0.60;;;;;;;22.88;57.60;101365.47;5097812;28;20239;-68
2023/10/12 06:11:41;;;;;;;0.90;0.45;;;;;;;23.45;57.09;101361.56;5097702;28;20066;-68
2023/10/12 06:14:08;;;;;;;0.65;0.35;;;;;;;23.43;55.98;101376.75;5094748;28;20032;-68
2023/10/12 06:16:40;;;;;;;1.10;0.50;;;;;;;23.60;56.14;101372.28;5100210;28;20421;-68
2023/10/12 06:21:52;;;;;;;0.50;0.47;;;;;;;23.18;57.50;101378.13;5095530;28;20364;-67
2023/10/12 06:24:30;;;;;;;1.65;0.57;;;;;;;23.19;56.04;101379.84;5081086;27;20043;-67
2023/10/12 06:26:55;;;;;;;2.08;0.70;;;;;;;23.02;57.24;101382.53;5102608;28;20031;-67
2023/10/12 06:29:28;;;;;;;1.38;0.80;;;;;;;23.05;57.15;101387.69;5093569;28;20538;-68
2023/10/12 06:31:59;;;;;;;0.68;0.50;;;;;;;23.19;57.73;101390.50;5105592;28;20506;-69
2023/10/12 06:34:24;;;;;;;0.88;0.73;;;;;;;23.43;55.49;101387.44;5109364;28;20039;-68
2023/10/12 06:36:57;;;;;;;0.88;0.57;;;;;;;23.33;56.30;101388.91;5095759;28;20120;-69
2023/10/12 06:44:27;;;;;;;1.02;0.77;;;;;;;23.49;56.59;101392.44;5095466;28;20042;-69
2023/10/12 06:46:54;;;;;;;1.05;0.80;;;;;;;23.47;55.43;101388.13;5098417;28;20024;-68
2023/10/12 06:49:32;;;;;;;0.68;0.63;;;;;;;23.49;56.39;101403.13;5096734;28;20020;-69
2023/10/12 06:52:00;;;;;;;3.33;1.00;;;;;;;23.90;55.02;101408.91;5088977;28;20028;-68
2023/10/12 07:02:29;;;;;;;1.45;1.13;;;;;;;23.87;55.21;101424.09;5125488;27;20035;-69
2023/10/12 07:05:01;;;;;;;0.98;0.88;;;;;;;23.72;55.38;101432.97;5112514;27;20035;-68
2023/10/12 07:07:41;;;;;;;3.30;1.17;;;;;;;23.85;54.79;101425.13;5116967;27;20024;-69
2023/10/12 07:12:47;;;;;;;3.58;1.40;;;;;;;23.77;55.67;101422.03;5113357;27;20464;-69
2023/10/12 07:15:22;;;;;;;1.23;1.02;;;;;;;23.26;56.61;101423.03;5097321;28;20103;-69
2023/10/12 07:17:49;;;;;;;1.83;1.02;;;;;;;22.45;59.07;101441.44;5118780;27;20023;-69
2023/10/12 07:22:56;;;;;;;2.28;1.75;;;;;;;23.55;56.34;101448.13;5110028;27;20063;-69
2023/10/12 07:25:24;;;;;;;2.92;1.60;;;;;;;23.25;56.08;101441.81;5114697;27;20019;-69
2023/10/12 07:27:58;;;;;;;2.50;1.27;;;;;;;23.16;56.34;101441.34;5122855;27;20032;-69
2023/10/12 07:30:30;;;;;;;3.75;1.00;;;;;;;23.40;56.39;101440.97;5111869;27;20033;-69
2023/10/12 07:33:00;;;;;;;1.25;0.95;;;;;;;23.83;54.58;101453.72;5106471;27;20490;-70
2023/10/12 07:35:34;;;;;;;1.55;1.02;;;;;;;24.07;54.38;101456.84;5111345;27;20072;-70
2023/10/12 07:38:01;;;;;;;2.60;1.58;;;;;;;23.73;54.69;101458.72;5114737;27;20015;-70
2023/10/12 07:40:34;;;;;;;2.13;1.33;;;;;;;23.61;55.56;101459.41;5106249;27;20068;-69
2023/10/12 07:43:04;;;;;;;0.98;0.90;;;;;;;23.56;55.14;101464.97;5108554;27;20047;-69
2023/10/12 07:45:33;;;;;;;2.75;1.17;;;;;;;22.77;56.91;101463.78;5126530;27;20027;-70
2023/10/12 07:47:59;;;;;;;1.67;1.10;;;;;;;22.85;56.94;101453.59;5111911;27;20019;-70
2023/10/12 07:50:30;;;;;;;4.30;0.75;;;;;;;22.51;58.86;101457.97;5119445;27;20490;-70
2023/10/12 07:53:22;;;;;;;1.83;0.60;;;;;;;22.86;57.34;101451.75;5105049;27;20031;-70
2023/10/12 07:55:58;;;;;;;1.33;0.95;;;;;;;23.34;55.73;101457.28;5108839;28;20501;-71
2023/10/12 07:58:23;;;;;;;1.33;1.15;;;;;;;23.04;56.39;101449.97;5107471;27;20040;-72
2023/10/12 08:00:59;;;;;;;2.47;0.88;;;;;;;23.35;56.37;101448.34;5095962;27;20475;-75
2023/10/12 08:03:25;;;;;;;2.35;0.73;;;;;;;23.27;56.30;101458.56;5092431;28;20114;-74
2023/10/12 08:05:56;;;;;;;1.60;0.60;;;;;;;23.47;55.51;101453.00;5110471;28;20153;-75
2023/10/12 08:08:35;;;;;;;1.38;1.00;;;;;;;23.51;55.64;101454.56;5091825;28;20440;-76
2023/10/12 08:11:27;;;;;;;3.35;1.30;;;;;;;23.20;55.75;101450.91;5093958;28;20031;-75
2023/10/12 08:13:55;;;;;;;3.35;1.60;;;;;;;22.82;57.17;101445.75;5105784;28;20550;-75
2023/10/12 08:16:37;;;;;;;1.45;1.05;;;;;;;23.39;56.25;101455.22;5104794;28;20023;-75
2023/10/12 08:24:09;;;;;;;2.58;1.45;;;;;;;23.86;55.40;101473.13;5113029;28;20023;-75
2023/10/12 08:32:04;;;;;;;3.15;0.95;;;;;;;24.41;53.84;101470.06;5115147;27;20073;-76
2023/10/12 08:40:07;;;;;;;2.38;1.20;;;;;;;24.77;52.79;101477.75;5124700;27;20091;-75
2023/10/12 08:45:37;;;;;;;1.25;1.00;;;;;;;24.17;54.58;101487.41;5117336;27;20536;-75
2023/10/12 08:48:01;;;;;;;1.88;1.23;;;;;;;24.79;52.76;101483.00;5114394;27;20486;-75
2023/10/12 08:53:13;;;;;;;1.60;1.42;;;;;;;24.67;52.74;101481.91;5118367;27;20593;-75
2023/10/12 08:55:39;;;;;;;2.05;1.40;;;;;;;24.15;53.13;101478.63;5117247;27;20051;-75
2023/10/12 08:58:16;;;;;;;2.30;1.27;;;;;;;24.28;53.43;101473.44;5119059;27;20106;-74
2023/10/12 09:01:23;;;;;;;1.58;1.10;;;;;;;24.72;52.92;101474.50;5122640;27;20467;-74
2023/10/12 09:03:38;;;;;;;2.47;1.50;;;;;;;24.76;51.90;101488.50;5118594;27;20039;-74
2023/10/12 09:06:19;;;;;;;2.95;1.30;;;;;;;24.05;53.52;101480.94;5104631;27;20027;-75
2023/10/12 09:08:46;;;;;;;1.85;1.27;;;;;;;24.34;53.12;101473.06;5115895;27;20107;-75
2023/10/12 09:13:37;;;;;;;1.95;1.50;;;;;;;24.25;53.51;101451.38;5114070;28;20074;-75
2023/10/12 09:16:07;;;;;;;2.22;1.40;;;;;;;24.24;53.49;101444.34;5096110;28;20542;-76
2023/10/12 09:18:42;;;;;;;2.42;1.77;;;;;;;24.28;54.08;101437.88;5098714;27;20030;-75
2023/10/12 09:21:39;;;;;;;2.25;1.30;;;;;;;24.01;55.10;101441.16;5113829;28;20038;-76
2023/10/12 09:24:06;;;;;;;2.05;1.52;;;;;;;24.20;54.47;101444.50;5106254;27;20058;-75
2023/10/12 09:26:37;;;;;;;2.95;1.38;;;;;;;24.55;52.74;101452.28;5095937;28;20028;-75
2023/10/12 09:36:55;;;;;;;3.08;1.33;;;;;;;24.97;51.98;101430.22;5118130;27;20050;-75
2023/10/12 09:39:25;;;;;;;2.63;1.63;;;;;;;24.71;53.21;101430.00;5104942;27;20542;-75
2023/10/12 09:41:55;;;;;;;2.08;1.67;;;;;;;24.80;52.46;101429.44;5121800;27;20031;-75
2023/10/12 09:44:37;;;;;;;2.92;1.60;;;;;;;24.64;53.36;101439.34;5124634;27;20119;-75
2023/10/12 09:47:09;;;;;;;3.33;2.00;;;;;;;24.96;52.82;101417.81;5100233;27;20117;-75
2023/10/12 09:49:37;;;;;;;2.72;1.92;;;;;;;25.13;52.83;101428.31;5103314;28;20401;-75
2023/10/12 09:52:13;;;;;;;1.98;1.77;;;;;;;24.76;53.07;101421.69;5117008;27;20036;-75
2023/10/12 09:55:06;;;;;;;2.53;1.55;;;;;;;24.79;53.21;101414.34;5113073;27;20023;-75
2023/10/12 09:57:33;;;;;;;1.88;1.42;;;;;;;25.07;52.17;101415.31;5129336;27;20076;-75
2023/10/12 10:00:17;;;;;;;2.95;1.92;;;;;;;24.84;53.31;101420.28;5115749;27;20087;-75
2023/10/12 10:02:44;;;;;;;2.92;1.23;;;;;;;24.88;53.38;101408.44;5113203;27;20395;-75
2023/10/12 10:07:55;;;;;;;3.55;1.30;;;;;;;24.99;52.91;101407.78;5133034;27;20020;-75
2023/10/12 10:10:33;;;;;;;2.60;1.75;;;;;;;24.65;53.74;101409.00;5117907;27;20024;-75
2023/10/12 10:13:08;;;;;;;2.17;1.58;;;;;;;25.23;52.67;101400.03;5112403;27;20024;-75
2023/10/12 10:15:55;;;;;;;2.53;1.80;;;;;;;25.33;52.07;101405.69;5109601;27;20173;-75
2023/10/12 10:18:25;;;;;;;1.80;1.30;;;;;;;24.93;53.10;101399.28;5114668;27;20015;-74
2023/10/12 10:21:01;;;;;;;2.28;1.70;;;;;;;25.45;52.42;101395.19;5110528;27;20023;-74
2023/10/12 10:23:29;;;;;;;3.13;1.83;;;;;;;25.45;51.96;101398.69;5113098;27;20023;-74
2023/10/12 10:26:16;;;;;;;3.50;1.85;;;;;;;25.41;52.13;101397.19;5093380;28;20023;-76
2023/10/12 10:28:53;;;;;;;1.58;1.45;;;;;;;25.48;52.46;101392.31;5106891;27;20031;-75
2023/10/12 10:31:28;;;;;;;1.92;1.25;;;;;;;25.76;51.80;101379.78;5107236;27;20024;-76
2023/10/12 10:34:01;;;;;;;2.45;1.75;;;;;;;25.37;52.78;101379.59;5129967;27;20050;-77
2023/10/12 10:36:27;;;;;;;;;;;;;;;25.54;52.07;101384.75;5112579;27;20027;-76
2023/10/12 10:41:23;;;;;;;2.40;1.83;;;;;;;24.63;54.62;101377.00;5112569;27;20038;-76
2023/10/12 10:43:53;;;;;;;1.85;1.60;;;;;;;25.19;54.34;101366.41;5112554;27;20032;-76
2023/10/12 10:46:21;;;;;;;2.75;1.73;;;;;;;25.02;54.45;101363.97;5127094;27;20071;-76
2023/10/12 10:48:49;;;;;;;5.82;2.30;;;;;;;24.82;55.43;101368.72;5111802;27;20020;-76
2023/10/12 10:51:19;;;;;;;4.15;2.03;;;;;;;25.72;53.37;101368.44;5111828;28;20106;-75
2023/10/12 10:53:52;;;;;;;7.43;2.25;;;;;;;25.85;52.64;101377.38;5103898;28;20114;-75
2023/10/12 10:56:32;;;;;;;4.05;2.42;;;;;;;25.85;52.42;101372.00;5126163;27;20560;-75
2023/10/12 10:59:11;;;;;;;3.22;2.08;;;;;;;25.52;53.15;101362.56;5113023;27;20069;-74
2023/10/12 11:01:40;;;;;;;4.80;2.45;;;;;;;24.95;54.57;101366.16;5123587;27;20057;-75
2023/10/12 11:04:09;;;;;;;5.55;2.85;;;;;;;24.95;54.51;101357.25;5104587;27;20031;-75
2023/10/12 11:06:36;;;;;;;5.38;2.92;;;;;;;25.06;55.37;101370.84;5109159;27;20031;-75
2023/10/12 11:09:09;;;;;;;5.68;3.33;;;;;;;25.05;55.31;101367.28;5125264;27;20024;-75
2023/10/12 11:11:38;;;;;;;;;;;;;;;25.58;53.98;101361.28;5126502;27;20437;-75
2023/10/12 11:14:11;;;;;;;0.00;0.00;;;;;;;25.13;54.55;101350.75;5130325;27;20283;-76
2023/10/12 11:16:37;;;;;;;0.00;0.00;;;;;;;25.52;54.37;101348.31;5106125;28;20019;-76
2023/10/12 11:19:04;;;;;;;0.03;0.03;;;;;;;25.22;54.65;101360.88;5093751;28;20089;-76
2023/10/12 11:21:29;;;;;;;0.00;0.00;;;;;;;25.63;54.58;101352.97;5105471;27;20068;-76
2023/10/12 11:24:09;;;;;;;0.13;0.13;;;;;;;25.84;54.09;101348.03;5111802;27;20030;-76
2023/10/12 11:26:51;;;;;;;0.22;0.22;;;;;;;25.20;55.76;101351.25;5113921;27;20027;-76
2023/10/12 11:29:16;;;;;;;0.47;0.47;;;;;;;25.61;55.39;101338.81;5119132;27;20027;-76
2023/10/12 11:31:46;;;;;;;0.10;0.10;;;;;;;25.41;55.71;101338.31;5110389;27;20027;-76
2023/10/12 11:34:21;;;;;;;0.20;0.20;;;;;;;25.95;54.54;101333.91;5109904;27;20031;-76
2023/10/12 11:36:47;;;;;;;0.00;0.00;;;;;;;25.97;54.45;101332.00;5109024;27;20034;-76
2023/10/12 11:39:18;;;;;;;0.05;0.05;;;;;;;25.80;54.57;101328.66;5105531;27;20035;-76
2023/10/12 11:42:04;;;;;;;0.00;0.00;;;;;;;26.39;53.70;101330.03;5118860;27;20037;-76
2023/10/12 11:44:37;;;;;;;0.00;0.00;;;;;;;26.71;52.70;101319.78;5115562;27;20065;-75
2023/10/12 11:47:07;;;;;;;0.00;0.00;;;;;;;25.83;54.46;101328.44;5120576;27;20384;-76
2023/10/12 11:49:58;;;;;;;0.75;0.47;;;;;;;26.29;54.30;101318.25;5114376;27;20019;-76
2023/10/12 11:52:32;;;;;;;0.10;0.10;;;;;;;25.69;55.61;101309.75;5105893;27;20492;-76
2023/10/12 11:55:18;;;;;;;1.08;1.08;;;;;;;25.91;55.50;101315.38;5111291;27;20511;-75
2023/10/12 11:57:45;;;;;;;0.32;0.32;;;;;;;26.40;54.42;101304.97;5097003;27;20050;-75
2023/10/12 12:02:59;;;;;;;0.15;0.15;;;;;;;26.74;53.49;101299.97;5128297;27;20449;-76
2023/10/12 12:05:31;;;;;;;0.10;0.10;;;;;;;26.71;53.65;101298.34;5113791;28;20042;-76
2023/10/12 12:07:58;;;;;;;0.43;0.43;;;;;;;26.58;53.23;101298.34;5130757;27;20031;-76
2023/10/12 12:10:37;;;;;;;1.27;0.65;;;;;;;25.42;57.75;101307.94;5113373;28;20105;-76
2023/10/12 12:13:04;;;;;;;0.00;0.00;;;;;;;26.14;55.12;101299.59;5113332;28;20573;-76
2023/10/12 12:15:30;;;;;;;0.10;0.10;;;;;;;25.83;56.25;101309.69;5112605;28;20023;-76
2023/10/12 12:17:57;;;;;;;0.90;0.90;;;;;;;25.77;56.34;101302.06;5113033;28;20025;-76
2023/10/12 12:20:23;;;;;;;0.15;0.10;;;;;;;25.52;57.42;101302.84;5131568;28;20485;-75
2023/10/12 12:22:48;;;;;;;1.65;0.55;;;;;;;25.25;58.83;101295.59;5113280;28;20121;-76
2023/10/12 12:25:21;;;;;;;0.20;0.20;;;;;;;25.53;58.10;101289.34;5112737;28;20024;-75
2023/10/12 12:27:49;;;;;;;7.25;1.48;;;;;;;25.09;59.09;101290.41;5112073;28;20449;-75
2023/10/12 12:30:30;;;;;;;0.65;0.65;;;;;;;24.88;60.13;101288.16;5112733;28;20026;-76
2023/10/12 12:33:00;;;;;;;0.43;0.43;;;;;;;25.39;58.67;101284.06;5131489;28;20357;-75
2023/10/12 12:35:27;;;;;;;1.92;1.77;;;;;;;25.38;58.66;101285.03;5112805;28;20024;-77
2023/10/12 12:38:00;;;;;;;0.75;0.17;;;;;;;24.82;59.83;101299.22;5113169;28;20110;-75
2023/10/12 12:40:29;;;;;;;1.75;0.63;;;;;;;25.48;58.70;101296.81;5113125;28;20030;-75
2023/10/12 12:42:55;;;;;;;1.02;0.95;;;;;;;26.21;55.13;101290.19;5112293;28;20068;-76
2023/10/12 12:45:21;;;;;;;0.65;0.65;;;;;;;26.47;54.23;101292.00;5113288;28;20019;-76
2023/10/12 12:47:46;;;;;;;0.00;0.00;;;;;;;26.70;53.23;101293.09;5113210;28;20023;-76
2023/10/12 12:50:11;;;;;;;0.28;0.28;;;;;;;26.68;53.61;101297.66;5131030;28;20054;-76
2023/10/12 12:52:40;;;;;;;0.00;0.00;;;;;;;26.49;54.49;101304.34;5113535;28;20071;-76
2023/10/12 12:55:10;;;;;;;3.40;1.23;;;;;;;26.66;53.27;101299.63;5131336;28;20026;-76
2023/10/12 12:57:38;;;;;;;0.00;0.00;;;;;;;26.09;55.50;101301.75;5112621;28;20574;-76
2023/10/12 13:00:08;;;;;;;0.20;0.20;;;;;;;26.03;55.61;101307.50;5112575;28;20066;-76
2023/10/12 13:02:34;;;;;;;0.10;0.10;;;;;;;25.28;58.44;101307.94;5112328;28;20031;-75
2023/10/12 13:05:00;;;;;;;0.57;0.35;;;;;;;26.45;54.74;101308.19;5130753;28;20033;-76
2023/10/12 13:07:26;;;;;;;0.28;0.28;;;;;;;26.55;53.87;101308.41;5112675;28;20048;-74
2023/10/12 13:09:53;;;;;;;0.05;0.05;;;;;;;26.42;54.38;101313.78;5111095;28;20036;-73
2023/10/12 13:12:19;;;;;;;0.00;0.00;;;;;;;26.44;54.26;101319.88;5114102;27;20101;-74
2023/10/12 13:14:44;;;;;;;3.47;0.85;;;;;;;26.53;54.09;101332.63;5115997;27;20063;-74
2023/10/12 13:17:12;;;;;;;0.30;0.30;;;;;;;26.38;54.54;101328.34;5133532;27;20221;-74
2023/10/12 13:19:37;;;;;;;0.35;0.30;;;;;;;26.22;55.02;101307.97;5115852;27;20042;-74
2023/10/12 13:22:03;;;;;;;0.00;0.00;;;;;;;25.83;56.07;101290.94;5115331;27;20023;-73
2023/10/12 13:24:35;;;;;;;1.13;1.02;;;;;;;25.62;57.39;101276.31;5115437;27;20023;-73
2023/10/12 13:27:08;;;;;;;0.10;0.10;;;;;;;25.50;57.39;101268.16;5133803;27;20590;-73
2023/10/12 13:29:34;;;;;;;0.20;0.10;;;;;;;25.80;56.74;101264.41;5115648;27;20026;-73
2023/10/12 13:32:00;;;;;;;0.10;0.10;;;;;;;26.18;56.10;101260.91;5114688;27;20431;-73
2023/10/12 13:34:27;;;;;;;0.65;0.65;;;;;;;23.55;63.75;101258.69;5134408;27;20031;-73
2023/10/12 13:36:53;;;;;;;0.00;0.00;;;;;;;23.46;67.46;101263.72;5115024;27;20019;-74
2023/10/12 13:39:18;;;;;;;2.72;1.13;;;;;;;23.77;66.42;101262.78;5133584;27;20031;-73
2023/10/12 13:41:43;;;;;;;0.00;0.00;;;;;;;23.62;66.85;101263.69;5134022;27;20034;-73
2023/10/12 13:44:09;;;;;;;0.43;0.32;;;;;;;24.52;64.34;101265.44;5115123;27;20526;-73
2023/10/12 13:46:34;;;;;;;0.10;0.10;;;;;;;24.76;63.63;101264.88;5114510;27;20547;-73
2023/10/12 13:49:02;;;;;;;1.15;0.90;;;;;;;24.54;63.63;101263.50;5133420;27;20546;-73
2023/10/12 13:51:36;;;;;;;0.15;0.15;;;;;;;24.57;64.20;101265.13;5115194;27;20562;-73
2023/10/12 13:54:04;;;;;;;0.20;0.20;;;;;;;23.66;67.12;101265.22;5114844;27;20023;-73
2023/10/12 13:56:30;;;;;;;0.52;0.47;;;;;;;24.62;64.13;101259.53;5115272;27;20026;-73
2023/10/12 13:58:58;;;;;;;0.50;0.50;;;;;;;24.44;65.84;101265.03;5114089;27;20406;-73
2023/10/12 14:01:24;;;;;;;0.32;0.32;;;;;;;25.18;61.77;101263.06;5111788;28;20076;-73
2023/10/12 14:03:55;;;;;;;0.52;0.52;;;;;;;24.08;64.65;101268.97;5113174;28;20024;-73
2023/10/12 14:06:23;;;;;;;6.55;0.75;;;;;;;25.07;62.94;101262.91;5111055;28;20122;-73